Westport Harbour, New Zealand
Current Conditions -  °F | °C
As of 3:30 AM on Friday 24 Oct 2014 (Local Time) from NZCH Reporting Station
Rain Showers Rain Showers  
Wind Chill: 42°   Ceiling: 4800
Heat Index: 48°   Visibility: 6mi
Dew Point: 37°   Wind: 15mph
Humidity: 66%   Direction: 200°SSW
Pressure: 29.8"   Gusts: NA
Location:  41.75°S, 171.6°E
Report Text: NZCH 231530Z AUTO 20013KT 160V230 9999 -SHRA SCT037///BKN048/// OVC060/// 09/03 Q1009 TEMPO 4000 SHRA
Loading
Personal Weather Stations






























Interactive Weather Map
Tropical Storm Tracking
New forecast layout! Learn more

10-Day Weather Forecast

Advertisements
Track Severe Weather on mobile